Time;durP1;ratioP1;P1;durP2;ratioP2;P2;SDS_P1;SDS_P2;PMS_P1;PMS_P2;Temp;Humidity;BMP_temperature;BMP_pressure;BME280_temperature;BME280_humidity;BME280_pressure;Samples;Min_cycle;Max_cycle;Signal;HPM_P1;HPM_P2
2021/07/23 00:00:05;;;;;;;16.67;5.70;;;;;;;22.64;54.15;100448.50;5013413;28;20029;-65
2021/07/23 00:02:31;;;;;;;10.38;4.93;;;;;;;22.54;54.41;100442.50;5012768;28;20564;-65
2021/07/23 00:04:56;;;;;;;11.13;4.80;;;;;;;22.44;54.64;100457.53;5012626;28;20133;-65
2021/07/23 00:07:21;;;;;;;7.88;4.95;;;;;;;22.40;54.35;100458.44;5011413;28;20117;-69
2021/07/23 00:09:47;;;;;;;10.98;5.10;;;;;;;22.39;54.68;100458.47;5012370;28;20034;-65
2021/07/23 00:12:12;;;;;;;10.88;5.28;;;;;;;22.24;55.16;100457.75;5012371;28;20030;-65
2021/07/23 00:14:38;;;;;;;9.27;4.43;;;;;;;22.09;55.39;100458.78;5012773;28;20507;-68
2021/07/23 00:17:03;;;;;;;8.25;4.97;;;;;;;21.99;55.48;100465.00;5012720;28;20034;-68
2021/07/23 00:19:29;;;;;;;10.88;5.18;;;;;;;21.92;55.97;100460.69;5012901;28;20041;-68
2021/07/23 00:21:54;;;;;;;7.60;4.75;;;;;;;21.95;56.10;100458.91;5012990;28;20048;-69
2021/07/23 00:24:20;;;;;;;8.02;5.18;;;;;;;22.02;55.99;100461.47;5011890;28;20587;-68
2021/07/23 00:26:53;;;;;;;7.43;4.95;;;;;;;21.97;55.93;100454.53;5012628;28;20037;-67
2021/07/23 00:29:21;;;;;;;13.95;4.95;;;;;;;22.00;56.10;100464.13;5012209;28;20524;-67
2021/07/23 00:31:47;;;;;;;9.13;5.13;;;;;;;22.01;56.29;100463.25;5012564;28;20395;-63
2021/07/23 00:34:13;;;;;;;9.40;4.68;;;;;;;21.80;56.37;100420.53;5012648;28;20100;-65
2021/07/23 00:36:39;;;;;;;8.63;5.25;;;;;;;21.91;56.35;100451.97;5012567;28;20048;-64
2021/07/23 00:39:04;;;;;;;7.07;5.00;;;;;;;21.87;56.46;100459.88;5011919;28;20061;-66
2021/07/23 00:41:30;;;;;;;9.75;5.05;;;;;;;21.67;56.58;100425.91;5009651;28;20424;-63
2021/07/23 00:43:55;;;;;;;7.05;4.97;;;;;;;21.71;56.76;100459.16;5009976;28;20436;-65
2021/07/23 00:46:29;;;;;;;12.13;4.88;;;;;;;21.69;56.33;100448.66;4970425;28;20034;-64
2021/07/23 00:48:55;;;;;;;8.02;4.90;;;;;;;21.73;56.15;100457.38;4970779;28;20555;-64
2021/07/23 00:51:21;;;;;;;6.97;4.75;;;;;;;21.70;56.53;100455.66;4969554;28;20066;-63
2021/07/23 00:53:46;;;;;;;10.75;4.75;;;;;;;21.76;56.22;100454.75;4970583;28;20408;-66
2021/07/23 00:56:13;;;;;;;8.43;4.95;;;;;;;21.60;56.89;100449.63;4970410;28;20031;-67
2021/07/23 00:58:38;;;;;;;7.30;4.63;;;;;;;21.56;57.03;100458.41;4970347;28;20034;-67
2021/07/23 01:01:04;;;;;;;9.88;5.15;;;;;;;21.62;56.71;100442.59;4970512;28;20567;-67
2021/07/23 01:03:29;;;;;;;7.25;4.80;;;;;;;21.68;57.01;100448.69;4970483;28;20062;-70
2021/07/23 01:05:56;;;;;;;8.52;5.35;;;;;;;21.68;57.13;100454.78;4970072;28;20042;-67
2021/07/23 01:08:21;;;;;;;7.88;4.68;;;;;;;21.60;57.08;100448.75;4970465;28;20030;-70
2021/07/23 01:10:47;;;;;;;7.07;4.50;;;;;;;21.55;57.40;100456.63;4970202;28;20390;-69
2021/07/23 01:13:13;;;;;;;9.32;4.93;;;;;;;21.41;56.99;100425.25;4970349;28;20051;-66
2021/07/23 01:15:38;;;;;;;7.82;4.72;;;;;;;21.49;56.84;100423.41;4970119;28;20055;-69
2021/07/23 01:18:04;;;;;;;8.20;4.80;;;;;;;21.61;57.08;100451.38;5003386;28;20038;-65
2021/07/23 01:20:30;;;;;;;8.57;5.10;;;;;;;21.59;57.01;100441.75;5011489;28;20034;-65
2021/07/23 01:22:59;;;;;;;7.85;5.00;;;;;;;21.41;57.82;100451.50;5011857;28;20032;-67
2021/07/23 01:25:26;;;;;;;9.15;4.93;;;;;;;21.49;58.20;100454.91;5011748;28;20037;-69
2021/07/23 01:27:51;;;;;;;7.35;4.90;;;;;;;21.45;57.85;100461.09;5011644;28;20034;-67
2021/07/23 01:30:28;;;;;;;5.72;4.25;;;;;;;21.47;58.28;100461.06;5011672;28;20036;-66
2021/07/23 01:32:53;;;;;;;7.63;4.72;;;;;;;21.38;57.90;100446.25;5011402;28;20109;-69
2021/07/23 01:35:20;;;;;;;9.00;4.70;;;;;;;21.40;58.11;100433.16;5010229;28;20445;-67
2021/07/23 01:37:47;;;;;;;8.20;4.78;;;;;;;21.36;58.89;100424.41;5011530;28;20026;-65
2021/07/23 01:40:14;;;;;;;7.63;4.78;;;;;;;21.37;59.51;100454.16;5011611;28;20029;-65
2021/07/23 01:42:40;;;;;;;10.43;5.10;;;;;;;21.37;59.45;100449.81;5011626;28;20400;-71
2021/07/23 01:45:07;;;;;;;10.68;4.80;;;;;;;21.40;59.84;100454.16;5011476;28;20048;-71
2021/07/23 01:47:33;;;;;;;6.97;4.97;;;;;;;21.36;59.48;100455.94;5011559;28;20540;-64
2021/07/23 01:49:59;;;;;;;6.65;4.82;;;;;;;21.35;59.53;100456.81;5011331;28;20060;-70
2021/07/23 01:52:24;;;;;;;8.00;5.03;;;;;;;21.29;59.46;100459.47;5002410;28;20401;-67
2021/07/23 01:54:50;;;;;;;8.30;5.10;;;;;;;21.32;59.24;100439.31;5006574;28;20029;-67
2021/07/23 01:57:16;;;;;;;6.22;4.90;;;;;;;21.24;59.74;100463.91;5011006;28;20034;-68
2021/07/23 01:59:41;;;;;;;6.80;4.85;;;;;;;21.10;59.90;100454.34;5011702;28;20109;-65
2021/07/23 02:02:07;;;;;;;6.13;4.72;;;;;;;21.23;59.39;100460.38;5011127;28;20061;-69
2021/07/23 02:04:36;;;;;;;11.10;5.70;;;;;;;21.10;59.39;100432.50;5015430;28;20104;-65
2021/07/23 02:07:02;;;;;;;11.70;5.32;;;;;;;21.26;59.55;100454.22;5015285;28;20392;-68
2021/07/23 02:09:27;;;;;;;7.97;5.10;;;;;;;21.25;59.23;100458.63;5014953;28;20030;-64
2021/07/23 02:11:53;;;;;;;9.25;5.20;;;;;;;21.25;59.22;100457.78;5014916;28;20037;-64
2021/07/23 02:14:19;;;;;;;13.88;5.40;;;;;;;21.25;59.62;100456.00;5015043;28;20104;-65
2021/07/23 02:16:44;;;;;;;8.95;5.00;;;;;;;21.25;59.79;100460.41;5014962;28;20030;-67
2021/07/23 02:19:09;;;;;;;8.05;5.20;;;;;;;21.22;59.70;100457.78;5014747;28;20495;-69
2021/07/23 02:21:36;;;;;;;10.10;5.82;;;;;;;21.11;60.17;100444.72;5015700;28;20033;-63
2021/07/23 02:24:02;;;;;;;6.93;5.05;;;;;;;21.07;59.90;100462.25;5014852;28;20030;-65
2021/07/23 02:26:28;;;;;;;10.25;5.07;;;;;;;21.09;59.52;100459.63;5014901;28;20527;-65
2021/07/23 02:28:53;;;;;;;9.27;5.57;;;;;;;21.07;59.98;100462.25;5014402;28;20028;-65
2021/07/23 02:31:19;;;;;;;9.98;5.10;;;;;;;21.00;60.14;100461.41;5014549;28;20084;-65
2021/07/23 02:33:45;;;;;;;10.05;5.20;;;;;;;20.76;60.53;100441.44;5015029;28;20388;-64
2021/07/23 02:36:12;;;;;;;12.00;5.05;;;;;;;20.62;61.89;100459.84;5014536;28;20034;-67
2021/07/23 02:38:38;;;;;;;8.77;4.95;;;;;;;20.50;62.30;100449.41;5014474;28;20026;-65
2021/07/23 02:41:03;;;;;;;11.57;5.38;;;;;;;20.66;62.24;100456.34;5014696;28;20037;-66
2021/07/23 02:43:29;;;;;;;11.27;5.30;;;;;;;20.74;62.07;100461.56;5014600;28;20029;-64
2021/07/23 02:45:54;;;;;;;10.90;5.85;;;;;;;20.41;63.07;100457.31;5014705;28;20026;-68
2021/07/23 02:48:20;;;;;;;7.10;4.85;;;;;;;20.06;63.40;100422.47;5014301;28;20379;-65
2021/07/23 02:50:45;;;;;;;12.25;5.20;;;;;;;20.01;64.12;100459.19;5014095;28;20160;-64
2021/07/23 02:53:11;;;;;;;13.43;5.32;;;;;;;19.72;64.70;100417.28;5014511;28;20026;-69
2021/07/23 02:55:37;;;;;;;12.40;5.70;;;;;;;19.67;65.85;100466.19;5014403;28;20468;-65
2021/07/23 02:58:03;;;;;;;28.08;6.60;;;;;;;19.41;66.11;100438.25;5014555;28;20530;-67
2021/07/23 03:00:28;;;;;;;14.13;5.43;;;;;;;19.11;66.87;100424.25;5011607;28;20042;-63
2021/07/23 03:02:54;;;;;;;11.82;4.78;;;;;;;19.20;67.53;100460.03;5013902;28;20022;-63
2021/07/23 03:05:19;;;;;;;12.98;4.80;;;;;;;19.19;67.70;100453.94;5028425;28;20034;-63
2021/07/23 03:07:44;;;;;;;9.05;4.78;;;;;;;19.27;67.22;100450.47;5013949;28;20496;-64
2021/07/23 03:10:11;;;;;;;8.63;5.15;;;;;;;19.36;67.07;100459.19;5014445;28;20036;-64
2021/07/23 03:12:39;;;;;;;8.85;4.95;;;;;;;19.39;66.76;100458.34;5014191;28;20108;-68
2021/07/23 03:15:05;;;;;;;12.35;4.68;;;;;;;19.46;65.94;100462.69;5013306;28;20076;-65
2021/07/23 03:17:31;;;;;;;10.43;5.20;;;;;;;19.65;65.04;100463.56;5013715;28;20472;-63
2021/07/23 03:19:56;;;;;;;11.40;6.22;;;;;;;19.81;65.38;100460.91;5013988;28;20029;-63
2021/07/23 03:22:21;;;;;;;10.35;5.70;;;;;;;19.76;65.22;100453.06;5013769;28;20049;-70
2021/07/23 03:24:47;;;;;;;11.80;5.65;;;;;;;19.81;64.47;100456.56;5013618;28;20052;-63
2021/07/23 03:27:13;;;;;;;16.35;5.53;;;;;;;19.75;64.48;100443.47;5004413;28;20478;-67
2021/07/23 03:29:38;;;;;;;13.93;6.13;;;;;;;19.85;64.20;100458.34;5013262;28;20037;-65
2021/07/23 03:32:04;;;;;;;11.90;5.47;;;;;;;19.88;63.78;100445.22;5013302;28;20068;-64
2021/07/23 03:34:31;;;;;;;9.75;4.93;;;;;;;19.98;63.86;100464.41;5013480;28;20030;-67
2021/07/23 03:36:57;;;;;;;8.75;5.65;;;;;;;19.81;64.16;100433.00;5013575;28;20037;-65
2021/07/23 03:39:22;;;;;;;7.68;5.07;;;;;;;19.96;64.20;100473.16;5013340;28;20026;-64
2021/07/23 03:41:48;;;;;;;6.55;5.07;;;;;;;19.98;64.44;100466.19;5013205;28;20508;-65
2021/07/23 03:44:13;;;;;;;7.93;5.40;;;;;;;20.08;64.12;100472.28;5013173;28;20068;-71
2021/07/23 03:46:38;;;;;;;8.85;5.43;;;;;;;20.08;64.49;100473.13;5013180;28;20028;-64
2021/07/23 03:49:04;;;;;;;9.93;5.13;;;;;;;19.98;64.34;100479.28;5013189;28;20488;-64
2021/07/23 03:51:29;;;;;;;11.18;5.15;;;;;;;20.11;64.14;100472.25;5013119;28;20041;-64
2021/07/23 03:53:55;;;;;;;10.88;5.22;;;;;;;20.25;64.11;100477.47;5012184;28;20026;-64
2021/07/23 03:56:20;;;;;;;7.65;5.20;;;;;;;20.29;64.17;100480.06;5013208;28;20100;-65
2021/07/23 03:58:46;;;;;;;8.65;5.35;;;;;;;20.32;63.48;100487.91;5013299;28;20512;-65
2021/07/23 04:01:11;;;;;;;11.88;5.88;;;;;;;20.19;63.30;100446.91;5005208;28;20034;-65
2021/07/23 04:03:37;;;;;;;10.55;5.78;;;;;;;20.41;64.60;100480.91;4992548;28;20026;-68
2021/07/23 04:06:02;;;;;;;8.93;5.32;;;;;;;20.42;63.62;100478.28;4975449;28;20432;-67
2021/07/23 04:08:28;;;;;;;7.70;5.68;;;;;;;20.50;63.72;100478.28;4993705;28;20031;-69
2021/07/23 04:10:55;;;;;;;11.77;6.03;;;;;;;20.57;64.25;100486.97;4993582;28;20030;-66
2021/07/23 04:13:21;;;;;;;7.60;5.82;;;;;;;20.38;64.11;100450.31;4993683;28;20062;-66
2021/07/23 04:15:47;;;;;;;8.32;5.55;;;;;;;20.66;63.69;100492.16;4993227;28;20512;-65
2021/07/23 04:18:12;;;;;;;8.45;5.32;;;;;;;20.65;63.42;100493.06;4993360;28;20058;-66
2021/07/23 04:20:38;;;;;;;10.05;5.47;;;;;;;20.64;63.26;100493.94;4993643;28;20034;-66
2021/07/23 04:23:06;;;;;;;7.80;5.43;;;;;;;20.55;63.90;100488.72;4993555;28;20033;-71
2021/07/23 04:25:32;;;;;;;7.55;4.97;;;;;;;20.34;64.34;100469.56;4993639;28;20038;-66
2021/07/23 04:27:58;;;;;;;6.38;4.70;;;;;;;20.52;64.19;100495.75;4993221;28;20031;-65
2021/07/23 04:30:24;;;;;;;9.77;5.95;;;;;;;20.65;63.82;100485.19;4993183;28;20444;-71
2021/07/23 04:32:49;;;;;;;10.02;5.05;;;;;;;20.76;63.63;100501.78;4993150;28;20165;-66
2021/07/23 04:35:15;;;;;;;9.07;5.85;;;;;;;20.77;63.54;100511.41;4993323;28;20031;-67
2021/07/23 04:37:40;;;;;;;10.82;5.22;;;;;;;20.56;63.08;100453.75;4992947;28;20027;-66
2021/07/23 04:40:06;;;;;;;7.32;5.20;;;;;;;20.69;64.43;100473.81;4993358;28;20105;-65
2021/07/23 04:42:32;;;;;;;7.45;5.30;;;;;;;20.30;63.48;100410.16;4992764;28;20029;-69
2021/07/23 04:44:58;;;;;;;10.90;5.43;;;;;;;20.74;62.82;100479.94;4993303;28;20023;-66
2021/07/23 04:47:23;;;;;;;11.10;5.80;;;;;;;21.05;63.63;100502.50;4992989;28;20028;-66
2021/07/23 04:49:49;;;;;;;9.60;4.93;;;;;;;21.02;63.67;100508.63;4993132;28;20065;-67
2021/07/23 04:52:14;;;;;;;6.35;4.75;;;;;;;20.95;64.88;100501.72;4992902;28;20392;-67
2021/07/23 04:54:40;;;;;;;12.27;5.75;;;;;;;20.69;64.02;100502.66;4993016;28;20030;-66
2021/07/23 04:57:06;;;;;;;7.72;5.82;;;;;;;20.74;63.88;100494.81;4992606;28;20065;-67
2021/07/23 04:59:32;;;;;;;13.30;8.73;;;;;;;20.41;64.60;100466.06;4992968;28;20451;-66
2021/07/23 05:01:57;;;;;;;16.10;10.10;;;;;;;20.61;65.11;100494.84;4992736;28;20031;-66
2021/07/23 05:04:23;;;;;;;16.20;8.45;;;;;;;20.58;65.96;100496.59;4992854;28;20547;-64
2021/07/23 05:06:49;;;;;;;14.60;8.65;;;;;;;20.56;65.64;100496.59;4992772;28;20022;-68
2021/07/23 05:09:14;;;;;;;12.63;7.65;;;;;;;20.36;66.59;100496.66;5011428;28;20488;-66
2021/07/23 05:11:42;;;;;;;12.65;6.97;;;;;;;20.18;67.20;100494.97;5011988;28;20068;-66
2021/07/23 05:14:08;;;;;;;15.55;7.00;;;;;;;20.15;67.18;100494.94;5011570;28;20026;-64
2021/07/23 05:16:35;;;;;;;20.70;6.30;;;;;;;20.35;64.67;100487.91;5012239;28;20377;-65
2021/07/23 05:19:01;;;;;;;12.15;5.47;;;;;;;20.46;63.27;100490.50;5011615;28;20488;-65
2021/07/23 05:21:29;;;;;;;10.35;5.18;;;;;;;20.52;62.81;100497.47;5011998;28;20021;-64
2021/07/23 05:23:54;;;;;;;11.80;4.82;;;;;;;20.60;61.11;100494.81;5012026;28;20044;-67
2021/07/23 05:26:20;;;;;;;7.03;4.22;;;;;;;20.65;60.15;100496.56;5005558;28;20026;-69
2021/07/23 05:28:46;;;;;;;9.38;4.22;;;;;;;20.48;59.25;100499.22;4992390;28;20373;-68
2021/07/23 05:31:11;;;;;;;6.63;4.40;;;;;;;20.61;60.82;100492.22;4992115;28;20100;-69
2021/07/23 05:33:37;;;;;;;11.75;4.65;;;;;;;20.76;60.03;100496.53;4974650;28;20030;-65
2021/07/23 05:36:03;;;;;;;9.95;5.25;;;;;;;20.85;60.25;100493.88;4992251;28;20026;-71
2021/07/23 05:38:29;;;;;;;10.07;5.18;;;;;;;20.95;60.70;100499.09;4992173;28;20038;-73
2021/07/23 05:40:54;;;;;;;8.68;4.80;;;;;;;20.84;58.53;100455.38;4993569;28;20189;-68
2021/07/23 05:43:20;;;;;;;7.93;4.80;;;;;;;21.19;58.46;100492.81;5000095;28;20461;-67
2021/07/23 05:45:46;;;;;;;8.73;5.57;;;;;;;21.43;57.09;100506.63;5002240;28;20465;-67
2021/07/23 05:48:11;;;;;;;9.48;5.10;;;;;;;21.60;57.10;100499.53;5000033;28;20029;-69
2021/07/23 05:50:36;;;;;;;8.45;4.80;;;;;;;21.73;56.68;100500.31;5000788;28;20615;-71
2021/07/23 05:53:02;;;;;;;12.00;5.60;;;;;;;21.62;57.41;100478.50;4994870;28;20028;-68
2021/07/23 05:55:27;;;;;;;17.42;5.88;;;;;;;21.82;57.05;100502.00;4991948;28;20022;-67
2021/07/23 05:57:57;;;;;;;8.48;5.30;;;;;;;21.65;57.30;100502.13;4991778;28;20069;-68
2021/07/23 06:00:26;;;;;;;11.38;5.22;;;;;;;21.66;57.42;100503.88;4992079;28;20030;-67
2021/07/23 06:02:53;;;;;;;11.05;5.63;;;;;;;21.62;57.58;100495.16;4991902;28;20057;-68
2021/07/23 06:05:19;;;;;;;14.30;6.85;;;;;;;21.61;57.81;100503.03;4991684;28;20034;-66
2021/07/23 06:07:44;;;;;;;11.88;6.47;;;;;;;21.48;58.69;100499.59;4991744;28;20037;-70
2021/07/23 06:10:10;;;;;;;24.27;7.60;;;;;;;21.64;57.71;100495.13;4991828;28;20105;-68
2021/07/23 06:12:35;;;;;;;17.90;7.30;;;;;;;21.77;58.21;100495.88;4991813;28;20065;-68
2021/07/23 06:15:01;;;;;;;21.00;6.18;;;;;;;21.85;59.38;100482.69;4991811;28;20113;-67
2021/07/23 06:17:26;;;;;;;16.20;5.68;;;;;;;21.92;59.91;100484.34;4991777;28;20030;-70
2021/07/23 06:19:52;;;;;;;17.17;6.55;;;;;;;22.11;59.25;100496.44;4992081;28;20507;-69
2021/07/23 06:22:19;;;;;;;22.77;6.90;;;;;;;22.14;57.31;100485.91;4991811;28;20475;-69
2021/07/23 06:24:45;;;;;;;20.50;7.43;;;;;;;22.23;57.33;100494.56;4996122;28;20033;-68
2021/07/23 06:27:10;;;;;;;33.63;7.88;;;;;;;22.36;57.42;100477.75;5011390;28;20073;-67
2021/07/23 06:29:36;;;;;;;33.20;8.70;;;;;;;22.65;56.04;100492.34;5011353;28;20057;-67
2021/07/23 06:32:01;;;;;;;27.80;6.93;;;;;;;22.74;55.67;100478.19;5011249;28;20391;-68
2021/07/23 06:34:27;;;;;;;24.40;6.15;;;;;;;22.75;56.58;100454.50;5011669;28;20026;-68
2021/07/23 06:36:52;;;;;;;21.30;6.53;;;;;;;23.01;55.83;100490.09;5011161;28;20049;-68
2021/07/23 06:39:17;;;;;;;22.75;6.90;;;;;;;23.18;55.65;100489.91;5011352;28;20033;-69
2021/07/23 06:41:43;;;;;;;20.45;6.63;;;;;;;23.26;55.48;100485.41;5010898;28;20503;-68
2021/07/23 06:44:08;;;;;;;26.33;7.05;;;;;;;23.36;55.18;100480.84;4992327;28;20042;-69
2021/07/23 06:46:34;;;;;;;20.88;6.70;;;;;;;23.55;53.45;100480.53;5011106;28;20111;-68
2021/07/23 06:48:59;;;;;;;16.88;6.55;;;;;;;23.67;56.95;100484.75;5011208;28;20416;-68
2021/07/23 06:51:25;;;;;;;18.45;5.95;;;;;;;23.42;51.53;100419.28;5014391;28;20033;-67
2021/07/23 06:56:26;;;;;;;11.98;5.25;;;;;;;24.03;51.63;100479.75;5103774;23;20475;-68
2021/07/23 06:58:53;;;;;;;18.58;5.55;;;;;;;24.09;51.65;100479.63;4992517;28;20022;-70
2021/07/23 07:01:18;;;;;;;15.55;5.57;;;;;;;24.01;53.98;100457.81;4994095;28;20511;-70
2021/07/23 07:03:44;;;;;;;10.60;3.72;;;;;;;24.32;47.13;100479.16;4994826;28;20027;-67
2021/07/23 07:06:11;;;;;;;15.23;4.40;;;;;;;24.38;48.38;100463.22;4994923;28;20034;-70
2021/07/23 07:08:36;;;;;;;16.65;4.65;;;;;;;24.45;49.75;100481.56;4994876;28;20038;-70
2021/07/23 07:11:02;;;;;;;19.00;4.88;;;;;;;24.50;47.13;100475.31;4995086;28;20026;-67
2021/07/23 07:13:27;;;;;;;13.88;4.45;;;;;;;24.57;45.76;100469.91;4995013;28;20293;-67
2021/07/23 07:15:53;;;;;;;20.17;4.32;;;;;;;24.55;48.52;100472.56;4994724;28;20026;-68
2021/07/23 07:18:27;;;;;;;16.85;4.05;;;;;;;24.52;46.46;100468.22;4995338;28;20424;-70
2021/07/23 07:20:53;;;;;;;15.40;3.97;;;;;;;24.68;48.07;100486.41;4995101;28;20027;-70
2021/07/23 07:23:18;;;;;;;15.02;3.67;;;;;;;24.64;44.90;100445.13;4994940;28;20030;-70
2021/07/23 07:25:44;;;;;;;13.57;3.72;;;;;;;24.80;44.00;100474.69;4995040;28;20030;-70
2021/07/23 07:28:09;;;;;;;13.30;3.47;;;;;;;24.97;43.76;100483.13;4995064;28;20026;-69
2021/07/23 07:30:47;;;;;;;14.77;4.53;;;;;;;25.04;43.33;100475.94;4994717;28;20027;-67
2021/07/23 07:33:13;;;;;;;14.02;3.08;;;;;;;25.03;41.03;100467.16;4994659;28;20381;-70
2021/07/23 07:35:43;;;;;;;10.30;2.92;;;;;;;25.31;41.32;100476.16;4994731;28;20030;-69
2021/07/23 07:38:08;;;;;;;;;;;;;;;25.48;42.38;100475.78;4995544;28;20381;-68
2021/07/23 07:40:33;;;;;;;11.73;3.20;;;;;;;25.64;38.43;100474.50;4995206;28;19920;-69
2021/07/23 07:42:59;;;;;;;9.52;3.05;;;;;;;25.74;39.99;100471.63;4994787;28;20033;-69
2021/07/23 07:45:24;;;;;;;7.30;2.70;;;;;;;25.88;38.02;100464.19;4994811;28;20086;-69
2021/07/23 07:47:51;;;;;;;9.70;2.45;;;;;;;25.93;34.99;100462.31;4994742;28;20109;-69
2021/07/23 07:50:16;;;;;;;8.95;2.88;;;;;;;25.98;36.72;100470.97;4994672;28;20476;-69
2021/07/23 07:52:47;;;;;;;9.05;3.10;;;;;;;26.17;35.66;100467.88;4995219;28;20030;-69
2021/07/23 07:55:13;;;;;;;6.32;2.58;;;;;;;26.17;34.97;100462.56;4994558;28;20488;-70
2021/07/23 07:57:41;;;;;;;6.03;2.13;;;;;;;26.14;37.29;100463.53;4994429;28;20520;-69
2021/07/23 08:00:07;;;;;;;10.55;2.90;;;;;;;26.30;37.55;100460.44;4994162;28;20113;-69
2021/07/23 08:02:33;;;;;;;7.53;2.90;;;;;;;26.19;38.17;100430.78;4994857;28;20629;-68
2021/07/23 08:04:58;;;;;;;12.85;3.67;;;;;;;26.46;36.11;100459.06;4992581;28;20125;-68
2021/07/23 08:07:29;;;;;;;8.60;2.72;;;;;;;26.62;35.43;100458.63;4994388;28;20053;-69
2021/07/23 08:10:01;;;;;;;14.93;3.67;;;;;;;26.67;36.78;100469.06;4993454;28;20022;-69
2021/07/23 08:12:29;;;;;;;5.80;2.38;;;;;;;26.70;35.37;100458.41;4994241;28;20034;-69
2021/07/23 08:14:55;;;;;;;6.78;2.70;;;;;;;26.75;33.55;100460.00;4994014;28;20026;-69
2021/07/23 08:20:11;;;;;;;5.60;2.50;;;;;;;26.76;33.83;100461.75;4994405;28;20405;-69
2021/07/23 08:22:36;;;;;;;5.72;2.40;;;;;;;26.86;32.80;100454.38;4994537;28;20034;-69
2021/07/23 08:25:02;;;;;;;9.48;2.58;;;;;;;26.74;34.07;100460.06;4983889;28;20097;-68
2021/07/23 08:27:28;;;;;;;7.07;2.40;;;;;;;26.91;37.58;100459.56;4977338;28;20110;-68
2021/07/23 08:29:54;;;;;;;18.95;3.22;;;;;;;26.96;34.56;100458.47;4973632;28;20019;-69
2021/07/23 08:32:20;;;;;;;11.68;2.58;;;;;;;26.85;33.84;100410.25;4972897;28;20041;-68
2021/07/23 08:34:45;;;;;;;10.25;2.38;;;;;;;27.11;33.17;100437.72;4973577;28;20023;-68
2021/07/23 08:37:11;;;;;;;4.85;2.10;;;;;;;27.22;33.24;100443.53;4973528;28;20031;-68
2021/07/23 08:39:36;;;;;;;7.07;2.15;;;;;;;27.31;34.61;100442.34;4977333;28;20022;-67
2021/07/23 08:42:24;;;;;;;5.15;2.15;;;;;;;27.38;32.34;100437.75;4983028;28;20058;-68
2021/07/23 08:44:50;;;;;;;4.47;2.47;;;;;;;27.33;32.54;100440.53;4982006;28;20026;-68
2021/07/23 08:47:15;;;;;;;6.90;2.38;;;;;;;27.20;32.73;100424.16;4983878;28;20018;-68
2021/07/23 08:49:41;;;;;;;8.90;2.53;;;;;;;27.41;33.91;100440.31;4978727;28;20062;-73
2021/07/23 08:52:08;;;;;;;12.35;3.45;;;;;;;27.41;35.32;100409.34;4980864;28;20026;-66
2021/07/23 08:54:33;;;;;;;7.95;2.20;;;;;;;27.34;32.62;100413.13;4982857;28;20162;-67
2021/07/23 08:56:59;;;;;;;8.30;2.42;;;;;;;27.45;36.54;100433.97;4981323;28;20106;-67
2021/07/23 08:59:24;;;;;;;6.88;2.70;;;;;;;27.52;36.26;100430.19;4983455;28;20523;-67
2021/07/23 09:02:00;;;;;;;10.63;3.25;;;;;;;27.62;33.96;100424.59;4981999;28;20034;-69
2021/07/23 09:04:29;;;;;;;10.90;2.60;;;;;;;27.69;34.58;100421.66;4978743;28;20031;-72
2021/07/23 09:07:23;;;;;;;10.48;3.42;;;;;;;27.64;36.77;100425.38;4981896;28;20027;-68
2021/07/23 09:10:05;;;;;;;5.93;2.63;;;;;;;27.57;37.54;100415.00;4979080;28;20053;-70
2021/07/23 09:12:45;;;;;;;5.90;2.55;;;;;;;27.15;35.17;100414.63;4979659;28;20045;-69
2021/07/23 09:15:18;;;;;;;7.63;2.88;;;;;;;27.34;33.53;100401.63;4979159;28;20519;-70
2021/07/23 09:17:44;;;;;;;7.20;3.10;;;;;;;27.29;33.51;100367.31;4983107;28;20234;-72
2021/07/23 09:20:10;;;;;;;10.65;3.03;;;;;;;27.71;33.29;100413.66;4981556;28;20054;-68
2021/07/23 09:22:43;;;;;;;5.22;2.88;;;;;;;27.82;33.87;100405.31;4975989;28;20136;-68
2021/07/23 09:25:09;;;;;;;5.13;2.70;;;;;;;27.76;33.97;100377.19;4981150;28;20019;-68
2021/07/23 09:27:35;;;;;;;9.30;2.72;;;;;;;28.11;34.49;100395.44;4982016;28;20034;-71
2021/07/23 09:30:01;;;;;;;5.78;2.97;;;;;;;28.41;34.38;100407.56;4982649;28;20029;-68
2021/07/23 09:32:28;;;;;;;5.85;3.00;;;;;;;28.48;34.44;100407.31;4975986;28;20059;-72
2021/07/23 09:35:14;;;;;;;6.40;3.00;;;;;;;28.46;32.26;100369.31;4974492;28;20037;-69
2021/07/23 09:37:57;;;;;;;5.40;2.47;;;;;;;28.79;32.53;100395.53;4971542;28;20022;-66
2021/07/23 09:40:23;;;;;;;9.77;3.22;;;;;;;28.91;33.92;100388.84;4971417;28;20106;-68
2021/07/23 09:42:59;;;;;;;8.73;2.90;;;;;;;28.84;32.27;100365.16;4971020;28;20189;-69
2021/07/23 09:45:32;;;;;;;8.45;3.10;;;;;;;29.00;32.02;100391.97;4969730;28;20189;-69
2021/07/23 09:48:06;;;;;;;11.52;3.17;;;;;;;28.59;31.95;100373.25;4970764;28;20029;-68
2021/07/23 09:50:32;;;;;;;9.45;3.50;;;;;;;28.67;32.26;100362.28;4970928;28;20031;-69
2021/07/23 09:52:58;;;;;;;14.05;3.20;;;;;;;28.95;31.99;100364.72;4970508;28;20068;-69
2021/07/23 09:55:23;;;;;;;8.65;2.72;;;;;;;29.26;31.49;100357.25;4969986;28;20042;-70
2021/07/23 09:57:51;;;;;;;7.53;3.60;;;;;;;29.20;35.87;100355.72;4957724;28;20039;-68
2021/07/23 10:00:22;;;;;;;9.07;3.35;;;;;;;29.10;32.28;100359.69;4968973;28;20122;-68
2021/07/23 10:02:50;;;;;;;8.07;3.20;;;;;;;29.13;31.38;100355.09;4968532;28;20019;-67
2021/07/23 10:05:23;;;;;;;4.07;2.70;;;;;;;29.30;30.79;100345.59;4970500;28;20022;-69
2021/07/23 10:08:05;;;;;;;5.97;2.90;;;;;;;29.47;33.91;100364.34;4970409;28;20465;-69
2021/07/23 10:10:30;;;;;;;4.40;2.80;;;;;;;29.69;34.83;100363.38;4967346;28;20045;-70
2021/07/23 10:12:58;;;;;;;3.35;2.50;;;;;;;30.01;31.84;100361.09;4970435;28;20114;-68
2021/07/23 10:15:29;;;;;;;6.97;3.20;;;;;;;30.16;32.59;100349.72;4970993;28;20023;-68
2021/07/23 10:17:56;;;;;;;9.88;3.03;;;;;;;30.04;32.37;100354.78;4970432;28;20030;-68
2021/07/23 10:20:21;;;;;;;6.93;3.13;;;;;;;29.81;32.82;100359.31;4968708;28;20041;-68
2021/07/23 10:22:54;;;;;;;8.80;3.00;;;;;;;28.95;32.25;100343.47;4970538;28;20109;-68
2021/07/23 10:25:27;;;;;;;5.55;2.67;;;;;;;28.56;33.53;100358.28;4970735;28;20512;-68
2021/07/23 10:27:53;;;;;;;6.15;3.47;;;;;;;28.05;33.39;100365.56;4975486;28;20051;-67
2021/07/23 10:30:31;;;;;;;6.38;3.17;;;;;;;27.92;34.39;100349.19;4973693;28;20061;-67
2021/07/23 10:33:16;;;;;;;6.43;3.00;;;;;;;28.26;34.38;100360.34;4974002;28;20106;-68
2021/07/23 10:35:42;;;;;;;7.57;3.20;;;;;;;28.77;33.80;100352.19;4955667;28;20037;-70
2021/07/23 10:38:07;;;;;;;5.15;3.00;;;;;;;29.23;32.81;100333.47;4951944;28;20041;-69
2021/07/23 10:40:37;;;;;;;6.18;3.10;;;;;;;29.46;32.36;100338.66;4951302;28;20035;-67
2021/07/23 10:43:37;;;;;;;5.97;3.30;;;;;;;29.83;31.32;100314.84;4950677;28;20482;-72
2021/07/23 10:46:03;;;;;;;5.82;3.20;;;;;;;30.05;33.72;100319.22;4950301;28;20036;-67
2021/07/23 10:48:46;;;;;;;6.43;3.92;;;;;;;30.25;30.89;100323.63;4951017;28;20043;-69
2021/07/23 10:51:47;;;;;;;5.93;3.78;;;;;;;30.42;28.88;100322.78;4952475;28;20106;-69
2021/07/23 10:54:14;;;;;;;10.18;3.70;;;;;;;30.29;31.34;100320.72;4952452;28;20027;-70
2021/07/23 10:57:06;;;;;;;8.32;3.63;;;;;;;29.33;30.78;100318.88;4936623;29;20047;-69
2021/07/23 10:59:40;;;;;;;7.30;3.25;;;;;;;29.29;33.03;100317.28;4951333;28;20038;-69
2021/07/23 11:02:15;;;;;;;6.70;4.25;;;;;;;29.36;31.33;100319.59;4951328;28;20039;-67
2021/07/23 11:04:46;;;;;;;9.75;5.13;;;;;;;29.34;30.67;100304.66;4951938;28;20042;-66
2021/07/23 11:07:15;;;;;;;8.75;4.50;;;;;;;29.45;31.15;100315.66;4966323;28;20513;-68
2021/07/23 11:09:44;;;;;;;12.23;5.63;;;;;;;29.37;32.67;100312.47;4973125;28;20105;-68
2021/07/23 11:12:20;;;;;;;13.82;7.72;;;;;;;29.29;32.38;100318.13;4973364;28;20069;-67
2021/07/23 11:14:57;;;;;;;14.35;8.88;;;;;;;28.98;33.65;100307.94;4973620;28;20031;-66
2021/07/23 11:17:23;;;;;;;14.52;7.93;;;;;;;28.86;33.28;100299.56;4973194;28;20426;-66
2021/07/23 11:19:52;;;;;;;10.15;6.07;;;;;;;28.88;34.08;100292.34;4972404;28;20061;-68
2021/07/23 11:22:22;;;;;;;8.23;3.80;;;;;;;28.95;33.33;100308.03;4974409;28;20433;-66
2021/07/23 11:24:49;;;;;;;10.90;3.35;;;;;;;29.16;33.46;100292.97;4973412;28;20042;-66
2021/07/23 11:27:29;;;;;;;6.55;3.50;;;;;;;29.79;29.68;100295.50;4974021;28;20023;-70